Time;durP1;ratioP1;P1;durP2;ratioP2;P2;SDS_P1;SDS_P2;PMS_P1;PMS_P2;Temp;Humidity;BMP_temperature;BMP_pressure;BME280_temperature;BME280_humidity;BME280_pressure;Samples;Min_cycle;Max_cycle;Signal;HPM_P1;HPM_P2
2021/07/30 00:01:55;;;;;;;5.40;4.40;;;15.90;97.30;;;;;;4993538;28;20209;-85
2021/07/30 00:04:21;;;;;;;6.50;4.43;;;15.90;97.30;;;;;;4993756;28;20187;-85
2021/07/30 00:06:46;;;;;;;8.17;4.60;;;15.90;97.30;;;;;;4993367;28;20201;-85
2021/07/30 00:09:12;;;;;;;7.47;4.50;;;15.90;97.30;;;;;;4992941;28;20237;-85
2021/07/30 00:11:39;;;;;;;5.90;4.43;;;15.80;97.30;;;;;;4993494;28;20257;-85
2021/07/30 00:14:04;;;;;;;19.07;4.43;;;15.70;97.30;;;;;;4993090;28;20202;-85
2021/07/30 00:16:30;;;;;;;5.60;4.20;;;15.70;97.30;;;;;;4992323;28;20491;-85
2021/07/30 00:18:56;;;;;;;8.63;4.40;;;15.70;97.30;;;;;;4992588;28;20540;-85
2021/07/30 00:21:21;;;;;;;13.43;4.50;;;15.60;97.30;;;;;;4992694;28;20205;-85
2021/07/30 00:23:47;;;;;;;7.03;4.43;;;15.60;97.30;;;;;;4992748;28;20245;-85
2021/07/30 00:26:12;;;;;;;9.83;4.23;;;15.60;97.30;;;;;;4992273;28;20186;-85
2021/07/30 00:28:38;;;;;;;7.40;4.40;;;15.60;97.30;;;;;;4992274;28;20185;-85
2021/07/30 00:31:04;;;;;;;6.60;4.47;;;15.60;97.30;;;;;;4992984;28;20210;-85
2021/07/30 00:33:30;;;;;;;7.60;4.40;;;15.50;97.30;;;;;;4992473;28;20511;-85
2021/07/30 00:35:56;;;;;;;6.93;4.70;;;15.50;97.30;;;;;;4992517;28;20182;-85
2021/07/30 00:38:21;;;;;;;7.47;4.97;;;15.50;97.30;;;;;;4992075;28;20528;-85
2021/07/30 00:40:47;;;;;;;8.00;4.70;;;15.50;97.30;;;;;;4991859;28;20235;-85
2021/07/30 00:43:12;;;;;;;8.80;4.77;;;15.50;97.30;;;;;;4991926;28;20653;-86
2021/07/30 00:45:39;;;;;;;10.90;4.23;;;15.40;97.30;;;;;;4994168;28;20201;-86
2021/07/30 00:48:05;;;;;;;10.40;4.53;;;15.40;97.30;;;;;;4992748;28;20648;-86
2021/07/30 00:50:31;;;;;;;11.00;4.93;;;15.30;97.30;;;;;;4992714;28;20431;-86
2021/07/30 00:52:56;;;;;;;11.57;4.30;;;15.40;97.30;;;;;;4993003;28;20287;-86
2021/07/30 00:55:23;;;;;;;10.10;4.50;;;15.40;97.30;;;;;;4992601;28;20206;-86
2021/07/30 00:57:49;;;;;;;7.80;4.53;;;15.40;97.30;;;;;;4992598;28;20185;-87
2021/07/30 01:00:15;;;;;;;6.73;4.10;;;15.40;97.30;;;;;;4991683;28;20848;-86
2021/07/30 01:02:41;;;;;;;7.67;4.10;;;15.40;97.30;;;;;;4993897;28;20954;-86
2021/07/30 01:05:08;;;;;;;8.43;4.40;;;15.40;97.30;;;;;;4992521;28;20428;-86
2021/07/30 01:07:33;;;;;;;9.33;4.50;;;15.50;97.30;;;;;;4992758;28;20872;-86
2021/07/30 01:10:00;;;;;;;6.10;4.43;;;15.50;97.30;;;;;;4992091;28;20429;-86
2021/07/30 01:12:26;;;;;;;8.57;4.40;;;15.50;97.30;;;;;;4992226;28;20212;-86
2021/07/30 01:14:54;;;;;;;8.90;3.60;;;15.40;97.30;;;;;;4994204;28;20547;-86
2021/07/30 01:17:20;;;;;;;9.77;4.00;;;15.40;97.30;;;;;;4994506;28;20540;-86
2021/07/30 01:19:45;;;;;;;5.97;4.30;;;15.40;97.30;;;;;;4993318;28;20460;-86
2021/07/30 01:22:21;;;;;;;11.93;4.80;;;15.40;97.30;;;;;;4992941;28;20441;-86
2021/07/30 01:24:47;;;;;;;9.30;4.17;;;15.40;97.30;;;;;;4995106;28;20916;-86
2021/07/30 01:27:13;;;;;;;5.50;4.60;;;15.30;97.30;;;;;;4996136;28;20433;-86
2021/07/30 01:29:38;;;;;;;5.37;3.83;;;15.30;97.30;;;;;;4997462;28;20178;-86
2021/07/30 01:32:04;;;;;;;5.60;4.23;;;15.30;97.30;;;;;;4996061;28;20198;-86
2021/07/30 01:34:30;;;;;;;10.30;4.90;;;15.20;97.30;;;;;;4995827;28;20212;-86
2021/07/30 01:36:55;;;;;;;7.03;4.43;;;15.20;97.30;;;;;;4995294;28;20425;-86
2021/07/30 01:39:21;;;;;;;7.57;4.20;;;15.20;97.30;;;;;;4996978;28;20170;-86
2021/07/30 01:41:46;;;;;;;8.70;4.00;;;15.20;97.30;;;;;;5035335;22;20256;-86
2021/07/30 01:44:14;;;;;;;7.57;4.20;;;15.10;97.30;;;;;;5015054;28;20184;-87
2021/07/30 01:46:40;;;;;;;6.10;4.30;;;15.10;97.30;;;;;;5016317;28;20173;-87
2021/07/30 01:49:05;;;;;;;15.63;4.90;;;15.10;97.30;;;;;;5014536;28;20498;-87
2021/07/30 01:51:31;;;;;;;6.97;4.23;;;15.10;97.30;;;;;;5014548;28;20309;-87
2021/07/30 01:53:56;;;;;;;7.27;4.43;;;15.10;97.30;;;;;;5014822;28;20208;-87
2021/07/30 01:56:22;;;;;;;6.90;3.80;;;15.10;97.30;;;;;;5015861;28;20489;-87
2021/07/30 01:58:47;;;;;;;5.47;4.07;;;15.00;97.30;;;;;;5014817;28;20169;-86
2021/07/30 02:01:13;;;;;;;6.37;4.27;;;15.00;97.30;;;;;;5014335;28;20205;-87
2021/07/30 02:03:38;;;;;;;6.10;4.40;;;15.00;97.30;;;;;;5015156;28;20262;-88
2021/07/30 02:06:08;;;;;;;9.00;5.00;;;15.00;97.30;;;;;;5014813;28;20188;-88
2021/07/30 02:08:35;;;;;;;10.47;4.60;;;15.10;97.30;;;;;;5014278;28;20851;-88
2021/07/30 02:11:07;;;;;;;15.50;4.50;;;15.00;97.30;;;;;;5015992;28;20440;-88
2021/07/30 02:16:17;;;;;;;8.53;4.67;;;15.00;97.30;;;;;;5015493;28;20563;-88
2021/07/30 02:18:43;;;;;;;9.60;4.40;;;15.00;97.30;;;;;;5014053;28;20448;-87
2021/07/30 02:21:09;;;;;;;7.40;4.50;;;14.90;97.30;;;;;;5014413;28;20212;-88
2021/07/30 02:23:35;;;;;;;7.47;4.47;;;14.90;97.30;;;;;;5014443;28;20729;-88
2021/07/30 02:26:00;;;;;;;10.53;4.70;;;14.90;97.30;;;;;;5013970;28;20176;-88
2021/07/30 02:28:26;;;;;;;11.50;4.17;;;14.90;97.30;;;;;;5014187;28;20189;-88
2021/07/30 02:30:51;;;;;;;7.70;4.27;;;14.90;97.30;;;;;;5015406;28;20260;-88
2021/07/30 02:33:17;;;;;;;13.43;4.87;;;14.80;97.30;;;;;;5013699;28;20185;-88
2021/07/30 02:35:42;;;;;;;9.97;4.23;;;14.80;97.30;;;;;;5013981;28;20635;-88
2021/07/30 02:38:08;;;;;;;8.10;4.23;;;14.80;97.30;;;;;;5014369;28;20180;-87
2021/07/30 02:40:34;;;;;;;17.23;4.90;;;14.80;97.30;;;;;;5013479;28;20177;-88
2021/07/30 02:43:00;;;;;;;5.10;4.00;;;14.80;97.30;;;;;;5013964;28;20193;-88
2021/07/30 02:45:26;;;;;;;10.03;5.20;;;14.70;97.30;;;;;;5015044;28;20777;-88
2021/07/30 02:47:51;;;;;;;7.03;4.60;;;14.70;97.30;;;;;;5013727;28;20420;-88
2021/07/30 02:50:17;;;;;;;7.80;4.67;;;14.70;97.30;;;;;;5015723;28;20191;-88
2021/07/30 02:52:43;;;;;;;8.67;4.90;;;14.60;97.30;;;;;;5014945;28;20288;-88
2021/07/30 02:55:08;;;;;;;7.47;4.20;;;14.60;97.30;;;;;;5014522;28;20204;-88
2021/07/30 02:57:34;;;;;;;9.77;4.80;;;14.60;97.30;;;;;;5014680;28;20173;-88
2021/07/30 02:59:59;;;;;;;8.33;4.70;;;14.60;97.30;;;;;;5014473;28;20790;-88
2021/07/30 03:02:25;;;;;;;8.30;4.90;;;14.50;97.30;;;;;;5014571;28;20208;-88
2021/07/30 03:04:51;;;;;;;7.50;4.00;;;14.50;97.30;;;;;;5015798;28;20177;-88
2021/07/30 03:07:16;;;;;;;5.50;4.97;;;14.50;97.30;;;;;;5016081;28;20177;-88
2021/07/30 03:09:42;;;;;;;6.07;4.50;;;14.40;97.30;;;;;;5014583;28;20184;-88
2021/07/30 03:12:07;;;;;;;9.50;4.60;;;14.40;97.30;;;;;;5014448;28;20207;-88
2021/07/30 03:14:33;;;;;;;7.73;5.13;;;14.40;97.30;;;;;;5014588;28;20280;-88
2021/07/30 03:16:58;;;;;;;5.50;4.27;;;14.40;97.30;;;;;;5014212;28;20196;-88
2021/07/30 03:19:24;;;;;;;13.93;5.40;;;14.40;97.30;;;;;;5014257;28;20173;-87
2021/07/30 03:21:50;;;;;;;5.87;4.13;;;14.30;97.30;;;;;;5014368;28;20197;-87
2021/07/30 03:24:15;;;;;;;5.83;4.60;;;14.30;97.30;;;;;;5014467;28;20196;-88
2021/07/30 03:26:41;;;;;;;7.23;4.77;;;14.30;97.30;;;;;;5014096;28;20181;-87
2021/07/30 03:29:06;;;;;;;7.43;4.47;;;14.30;97.30;;;;;;5014554;28;20259;-87
2021/07/30 03:31:32;;;;;;;7.77;4.63;;;14.30;97.30;;;;;;5014099;28;20284;-87
2021/07/30 03:33:57;;;;;;;6.73;4.27;;;14.30;97.30;;;;;;5014192;28;20205;-87
2021/07/30 03:36:23;;;;;;;9.10;4.83;;;14.30;97.30;;;;;;5013977;28;20181;-87
2021/07/30 03:38:48;;;;;;;6.77;5.33;;;14.20;97.30;;;;;;5014129;28;20200;-87
2021/07/30 03:41:14;;;;;;;8.40;4.87;;;14.20;97.30;;;;;;5013876;28;20248;-87
2021/07/30 03:43:40;;;;;;;5.67;4.50;;;14.10;97.30;;;;;;5013792;28;20236;-87
2021/07/30 03:46:05;;;;;;;6.20;3.93;;;14.10;97.30;;;;;;5013004;28;20181;-86
2021/07/30 03:48:31;;;;;;;12.67;5.03;;;14.10;97.30;;;;;;5014297;28;20220;-87
2021/07/30 03:50:58;;;;;;;8.10;5.20;;;14.10;97.30;;;;;;5013640;28;20705;-87
2021/07/30 03:53:23;;;;;;;10.10;5.03;;;14.10;97.30;;;;;;5013634;28;20430;-88
2021/07/30 03:55:49;;;;;;;6.40;4.37;;;14.10;97.30;;;;;;5013741;28;20416;-87
2021/07/30 03:58:15;;;;;;;6.40;4.50;;;14.10;97.30;;;;;;5014112;28;20177;-88
2021/07/30 04:00:41;;;;;;;7.67;4.80;;;14.10;97.30;;;;;;5013655;28;20182;-88
2021/07/30 04:03:06;;;;;;;8.80;4.67;;;14.10;97.30;;;;;;5013909;28;20424;-87
2021/07/30 04:05:32;;;;;;;7.20;4.50;;;14.10;97.30;;;;;;5013755;28;20220;-88
2021/07/30 04:07:57;;;;;;;6.40;4.30;;;14.10;97.30;;;;;;5013751;28;20177;-88
2021/07/30 04:10:23;;;;;;;8.10;4.77;;;14.10;97.30;;;;;;5013513;28;20176;-88
2021/07/30 04:12:49;;;;;;;8.80;5.10;;;14.10;97.30;;;;;;5013636;28;20209;-88
2021/07/30 04:15:14;;;;;;;6.53;4.60;;;14.20;97.30;;;;;;5013940;28;20218;-88
2021/07/30 04:17:42;;;;;;;6.30;4.67;;;14.20;97.30;;;;;;5005652;28;20231;-88
2021/07/30 04:20:08;;;;;;;7.47;4.40;;;14.20;97.30;;;;;;5007750;28;20173;-88
2021/07/30 04:22:34;;;;;;;8.00;4.50;;;14.20;97.30;;;;;;5006861;28;20432;-88
2021/07/30 04:24:59;;;;;;;8.10;4.60;;;14.20;97.30;;;;;;5002201;28;20431;-88
2021/07/30 04:27:25;;;;;;;6.13;4.93;;;14.30;97.30;;;;;;5005315;28;20173;-88
2021/07/30 04:29:50;;;;;;;8.00;4.70;;;14.30;97.30;;;;;;5014406;28;20182;-88
2021/07/30 04:32:16;;;;;;;6.57;4.40;;;14.30;97.30;;;;;;5013468;28;20209;-89
2021/07/30 04:34:42;;;;;;;7.10;4.50;;;14.40;97.30;;;;;;5007892;28;20285;-88
2021/07/30 04:37:07;;;;;;;5.67;3.83;;;14.40;97.30;;;;;;4994007;28;20186;-88
2021/07/30 04:39:34;;;;;;;6.50;4.50;;;14.40;97.30;;;;;;4993995;28;20609;-89
2021/07/30 04:42:00;;;;;;;8.33;4.23;;;14.40;97.30;;;;;;4993704;28;20746;-89
2021/07/30 04:44:26;;;;;;;7.50;5.13;;;14.40;97.30;;;;;;4993864;28;20429;-90
2021/07/30 04:46:52;;;;;;;11.70;5.13;;;14.40;97.30;;;;;;4993435;28;20182;-89
2021/07/30 04:49:17;;;;;;;7.33;4.50;;;14.40;97.30;;;;;;4993523;28;20762;-89
2021/07/30 04:51:43;;;;;;;7.87;4.63;;;14.50;97.30;;;;;;4993397;28;20571;-89
2021/07/30 04:54:08;;;;;;;9.37;5.40;;;14.50;97.30;;;;;;4993612;28;20218;-89
2021/07/30 04:56:34;;;;;;;7.57;4.80;;;14.50;97.30;;;;;;4994994;28;20182;-89
2021/07/30 04:58:59;;;;;;;7.57;4.80;;;14.60;97.30;;;;;;4996892;28;20792;-89
2021/07/30 05:01:25;;;;;;;6.83;5.00;;;14.60;97.30;;;;;;4998011;28;20189;-89
2021/07/30 05:03:51;;;;;;;8.07;5.20;;;14.70;97.30;;;;;;5001062;28;20183;-89
2021/07/30 05:06:21;;;;;;;7.97;4.43;;;14.70;97.30;;;;;;5016479;28;20235;-89
2021/07/30 05:08:47;;;;;;;11.70;5.10;;;14.80;97.30;;;;;;5016397;28;20650;-89
2021/07/30 05:11:13;;;;;;;8.63;4.90;;;14.80;97.30;;;;;;5017544;28;20486;-89
2021/07/30 05:13:39;;;;;;;6.80;4.57;;;14.80;97.30;;;;;;5016286;28;20206;-89
2021/07/30 05:16:10;;;;;;;7.10;5.30;;;14.90;97.30;;;;;;5016491;28;20940;-89
2021/07/30 05:18:36;;;;;;;9.73;5.27;;;15.00;97.30;;;;;;5016213;28;20438;-89
2021/07/30 05:21:06;;;;;;;7.60;4.23;;;15.00;97.30;;;;;;5016080;28;20811;-89
2021/07/30 05:23:32;;;;;;;8.60;4.40;;;15.10;97.30;;;;;;5015866;28;20435;-87
2021/07/30 05:25:58;;;;;;;7.10;4.30;;;15.20;97.30;;;;;;5016407;28;20521;-87
2021/07/30 05:28:24;;;;;;;9.30;4.80;;;15.30;97.30;;;;;;5016189;28;20328;-87
2021/07/30 05:30:50;;;;;;;7.87;4.40;;;15.40;97.30;;;;;;5016091;28;20453;-87
2021/07/30 05:33:16;;;;;;;8.33;3.60;;;15.50;97.30;;;;;;5015967;28;20905;-87
2021/07/30 05:35:41;;;;;;;5.60;3.90;;;15.70;97.30;;;;;;5016072;28;20188;-87
2021/07/30 05:38:07;;;;;;;16.90;3.97;;;15.80;97.30;;;;;;5016177;28;20196;-89
2021/07/30 05:40:32;;;;;;;8.27;3.57;;;16.00;97.30;;;;;;5015583;28;20183;-89
2021/07/30 05:42:58;;;;;;;5.67;3.80;;;16.10;97.30;;;;;;5017067;28;20232;-89
2021/07/30 05:45:23;;;;;;;6.40;4.00;;;16.20;97.30;;;;;;5016263;28;20181;-89
2021/07/30 05:47:49;;;;;;;6.97;4.60;;;16.40;97.30;;;;;;5016468;28;20185;-89
2021/07/30 05:50:15;;;;;;;6.67;3.30;;;16.50;97.30;;;;;;5016014;28;20181;-89
2021/07/30 05:52:41;;;;;;;7.43;3.77;;;16.60;97.30;;;;;;5016009;28;20201;-89
2021/07/30 05:55:07;;;;;;;5.53;3.50;;;16.70;97.30;;;;;;5015417;28;20521;-89
2021/07/30 05:57:33;;;;;;;7.43;3.47;;;16.80;97.30;;;;;;5016610;28;20178;-89
2021/07/30 06:00:00;;;;;;;6.90;3.40;;;16.90;97.30;;;;;;5015495;28;20424;-89
2021/07/30 06:02:26;;;;;;;4.67;3.47;;;17.00;97.30;;;;;;5015500;28;20467;-87
2021/07/30 06:04:51;;;;;;;5.37;3.93;;;17.10;97.30;;;;;;5015492;28;20420;-87
2021/07/30 06:07:17;;;;;;;6.93;4.20;;;17.20;97.30;;;;;;5014466;28;20192;-87
2021/07/30 06:09:42;;;;;;;7.00;3.53;;;17.20;97.30;;;;;;5016023;28;20181;-88
2021/07/30 06:12:08;;;;;;;5.90;3.17;;;17.30;97.30;;;;;;5015570;28;20292;-88
2021/07/30 06:14:33;;;;;;;5.07;3.10;;;17.40;97.30;;;;;;5014866;28;20208;-88
2021/07/30 06:16:59;;;;;;;6.97;3.90;;;17.40;97.30;;;;;;5015404;28;20177;-89
2021/07/30 06:19:24;;;;;;;5.17;3.67;;;17.50;97.30;;;;;;5015463;28;20174;-88
2021/07/30 06:21:50;;;;;;;5.47;3.43;;;17.60;97.30;;;;;;5015283;28;20567;-88
2021/07/30 06:24:16;;;;;;;5.73;3.70;;;17.70;97.30;;;;;;5015134;28;20196;-88
2021/07/30 06:26:41;;;;;;;12.93;3.70;;;17.80;97.30;;;;;;5015276;28;20252;-88
2021/07/30 06:29:07;;;;;;;5.40;3.27;;;17.90;97.30;;;;;;5015131;28;20200;-88
2021/07/30 06:31:32;;;;;;;5.33;3.27;;;18.00;97.30;;;;;;5014917;28;20205;-88
2021/07/30 06:33:58;;;;;;;8.63;3.53;;;18.00;97.30;;;;;;5015111;28;20209;-89
2021/07/30 06:36:23;;;;;;;5.47;3.20;;;18.10;97.30;;;;;;5015032;28;20169;-89
2021/07/30 06:38:49;;;;;;;5.00;3.27;;;18.20;97.30;;;;;;5014834;28;20631;-88
2021/07/30 06:41:15;;;;;;;4.60;3.27;;;18.30;97.30;;;;;;5014745;28;20228;-89
2021/07/30 06:43:41;;;;;;;5.03;3.10;;;18.40;96.70;;;;;;5014724;28;20215;-88
2021/07/30 06:46:07;;;;;;;4.90;3.20;;;18.50;96.60;;;;;;5014943;28;20420;-88
2021/07/30 06:48:32;;;;;;;4.80;3.23;;;18.60;96.40;;;;;;5014935;28;20477;-88
2021/07/30 06:50:58;;;;;;;6.33;3.17;;;18.70;97.30;;;;;;5015236;28;20763;-88
2021/07/30 06:53:24;;;;;;;6.87;2.90;;;18.80;95.10;;;;;;5014509;28;20264;-88
2021/07/30 06:55:49;;;;;;;5.17;3.10;;;18.90;94.30;;;;;;5016141;28;20230;-88
2021/07/30 06:58:15;;;;;;;3.60;2.97;;;19.00;94.30;;;;;;5015983;28;20662;-88
2021/07/30 07:00:40;;;;;;;6.57;3.57;;;19.10;93.50;;;;;;5014463;28;20184;-89
2021/07/30 07:03:06;;;;;;;4.87;2.87;;;19.20;92.90;;;;;;5014857;28;20678;-88
2021/07/30 07:05:33;;;;;;;4.77;3.20;;;19.30;94.40;;;;;;5014442;28;20216;-89
2021/07/30 07:07:59;;;;;;;11.90;3.63;;;19.40;92.20;;;;;;5014465;28;20181;-88
2021/07/30 07:10:24;;;;;;;4.30;2.97;;;19.50;92.20;;;;;;5019840;28;20416;-89
2021/07/30 07:12:50;;;;;;;6.03;2.87;;;19.60;93.10;;;;;;5014928;28;20207;-88
2021/07/30 07:15:15;;;;;;;5.70;2.70;;;19.70;92.00;;;;;;5014455;28;20227;-89
2021/07/30 07:17:41;;;;;;;3.67;2.80;;;19.80;92.80;;;;;;5014512;28;20173;-88
2021/07/30 07:20:07;;;;;;;8.17;3.10;;;19.90;91.10;;;;;;5014582;28;20215;-88
2021/07/30 07:22:33;;;;;;;5.03;2.57;;;20.00;90.90;;;;;;5014175;28;20201;-89
2021/07/30 07:24:58;;;;;;;10.87;2.87;;;20.00;91.60;;;;;;5015137;28;20921;-89
2021/07/30 07:27:24;;;;;;;8.23;4.00;;;20.10;90.80;;;;;;5015511;28;20236;-88
2021/07/30 07:29:50;;;;;;;7.73;3.17;;;20.20;91.20;;;;;;5013936;28;20181;-88
2021/07/30 07:32:15;;;;;;;6.03;2.80;;;20.30;88.80;;;;;;5014214;28;20201;-89
2021/07/30 07:34:41;;;;;;;6.60;2.77;;;20.30;88.80;;;;;;5014275;28;20243;-88
2021/07/30 07:37:06;;;;;;;11.77;3.10;;;20.30;88.20;;;;;;5014102;28;20180;-88
2021/07/30 07:39:32;;;;;;;5.03;2.70;;;20.40;88.50;;;;;;5013913;28;20264;-89
2021/07/30 07:41:58;;;;;;;3.60;2.37;;;20.50;88.80;;;;;;5030892;23;20238;-83
2021/07/30 07:44:25;;;;;;;4.73;2.60;;;20.60;88.40;;;;;;5025795;28;20455;-84
2021/07/30 07:46:51;;;;;;;4.40;2.47;;;20.70;88.00;;;;;;5028648;28;20482;-82
2021/07/30 07:49:17;;;;;;;9.20;2.87;;;20.80;88.50;;;;;;5030882;28;20427;-83
2021/07/30 07:51:42;;;;;;;3.90;2.70;;;20.80;87.10;;;;;;5031389;28;20689;-83
2021/07/30 07:54:08;;;;;;;12.07;3.10;;;20.90;87.20;;;;;;5028422;28;20197;-83
2021/07/30 07:56:34;;;;;;;5.70;2.37;;;21.00;87.90;;;;;;5019797;28;20181;-83
2021/07/30 07:59:01;;;;;;;2.70;2.30;;;21.00;86.20;;;;;;5023492;28;20172;-83
2021/07/30 08:01:26;;;;;;;9.60;3.37;;;21.10;87.20;;;;;;5028469;28;20568;-83
2021/07/30 08:03:52;;;;;;;5.70;3.07;;;21.10;85.60;;;;;;5021894;28;20419;-83
2021/07/30 08:06:19;;;;;;;3.73;2.17;;;21.10;85.90;;;;;;5019494;28;20177;-83
2021/07/30 08:08:45;;;;;;;2.40;2.27;;;21.10;86.80;;;;;;5030767;28;20263;-83
2021/07/30 08:11:11;;;;;;;3.40;2.20;;;21.20;86.00;;;;;;5020488;28;20941;-83
2021/07/30 08:13:37;;;;;;;5.97;2.93;;;21.30;85.70;;;;;;5026885;28;20498;-83
2021/07/30 08:16:03;;;;;;;4.30;2.20;;;21.40;85.50;;;;;;5036860;28;20183;-83
2021/07/30 08:18:29;;;;;;;3.90;2.30;;;21.40;86.40;;;;;;5035564;28;20489;-83
2021/07/30 08:20:55;;;;;;;5.93;2.50;;;21.50;85.80;;;;;;5030111;28;20952;-83
2021/07/30 08:23:20;;;;;;;3.93;2.60;;;21.60;86.60;;;;;;5031721;28;20501;-83
2021/07/30 08:25:46;;;;;;;3.83;2.53;;;21.60;85.50;;;;;;5029358;28;20463;-83
2021/07/30 08:28:13;;;;;;;5.83;2.47;;;21.70;85.70;;;;;;5028782;28;20180;-83
2021/07/30 08:30:42;;;;;;;4.60;3.17;;;21.80;84.70;;;;;;5030874;28;20185;-83
2021/07/30 08:33:07;;;;;;;3.87;2.10;;;21.80;84.80;;;;;;5034658;28;20419;-83
2021/07/30 08:35:34;;;;;;;3.20;2.20;;;22.00;85.00;;;;;;5034328;28;20466;-83
2021/07/30 08:38:00;;;;;;;4.83;2.30;;;22.00;84.60;;;;;;5034114;28;20180;-83
2021/07/30 08:40:33;;;;;;;2.60;2.33;;;22.10;84.40;;;;;;5034142;28;20456;-83
2021/07/30 08:42:59;;;;;;;6.23;2.10;;;22.10;84.60;;;;;;5020531;28;20447;-84
2021/07/30 08:45:25;;;;;;;3.73;2.40;;;22.10;85.40;;;;;;5023161;28;20437;-83
2021/07/30 08:47:51;;;;;;;5.93;2.70;;;22.10;84.70;;;;;;5034163;28;20420;-83
2021/07/30 08:50:17;;;;;;;10.83;3.83;;;22.20;85.10;;;;;;5034583;28;20180;-83
2021/07/30 08:52:44;;;;;;;9.33;2.43;;;22.20;84.10;;;;;;5034115;28;20814;-83
2021/07/30 08:55:11;;;;;;;5.97;2.60;;;22.20;84.10;;;;;;5033302;28;20459;-83
2021/07/30 08:57:39;;;;;;;4.40;2.17;;;22.20;83.80;;;;;;5033949;28;20427;-83
2021/07/30 09:00:12;;;;;;;4.83;2.40;;;22.30;84.40;;;;;;5033855;28;20548;-84
2021/07/30 09:02:38;;;;;;;7.10;2.60;;;22.40;82.80;;;;;;5001946;28;20804;-84
2021/07/30 09:05:26;;;;;;;5.97;2.77;;;22.50;83.50;;;;;;5022585;28;20442;-83
2021/07/30 09:07:51;;;;;;;5.20;2.60;;;22.60;82.00;;;;;;5032165;28;20270;-83
2021/07/30 09:10:28;;;;;;;3.17;2.20;;;22.70;82.70;;;;;;5033437;28;20903;-83
2021/07/30 09:13:13;;;;;;;5.60;2.30;;;22.70;82.30;;;;;;5033172;28;20286;-84
2021/07/30 09:15:39;;;;;;;5.50;2.03;;;22.70;80.50;;;;;;5033405;28;20465;-84
2021/07/30 09:18:05;;;;;;;6.03;2.93;;;22.70;81.70;;;;;;5027347;28;20937;-83
2021/07/30 09:20:31;;;;;;;2.30;1.93;;;22.70;81.20;;;;;;5033882;28;20259;-83
2021/07/30 09:22:56;;;;;;;4.97;2.83;;;22.70;82.60;;;;;;5033917;28;21130;-83
2021/07/30 09:25:36;;;;;;;3.90;3.07;;;22.80;82.20;;;;;;5032972;28;20172;-83
2021/07/30 09:28:03;;;;;;;3.33;2.20;;;22.90;81.80;;;;;;5032976;28;20318;-83
2021/07/30 09:30:29;;;;;;;7.60;2.40;;;23.10;83.10;;;;;;5033206;28;20966;-83
2021/07/30 09:32:55;;;;;;;5.07;2.70;;;23.20;81.20;;;;;;5032939;28;20482;-83
2021/07/30 09:35:20;;;;;;;4.20;2.80;;;23.20;80.10;;;;;;5031963;28;20467;-83
2021/07/30 09:37:46;;;;;;;3.17;2.43;;;23.30;79.70;;;;;;5033375;28;20339;-82
2021/07/30 09:40:21;;;;;;;8.07;2.83;;;23.30;79.30;;;;;;5032974;28;20242;-84
2021/07/30 09:42:47;;;;;;;3.03;2.03;;;23.40;78.70;;;;;;5029833;28;20229;-83
2021/07/30 09:45:15;;;;;;;7.17;2.70;;;23.40;79.50;;;;;;5032664;28;20449;-83
2021/07/30 09:47:48;;;;;;;4.70;2.43;;;23.40;79.20;;;;;;5032587;28;20295;-82
2021/07/30 09:50:14;;;;;;;4.53;2.13;;;23.50;80.50;;;;;;5033182;28;20760;-83
2021/07/30 09:52:43;;;;;;;5.60;2.30;;;23.60;78.30;;;;;;5032811;28;20478;-83
2021/07/30 09:55:13;;;;;;;3.10;2.00;;;23.70;79.30;;;;;;5032341;28;20262;-83
2021/07/30 09:57:40;;;;;;;4.87;2.77;;;23.70;78.50;;;;;;5033825;28;20427;-83
2021/07/30 10:00:15;;;;;;;3.13;2.10;;;23.70;78.20;;;;;;5032878;28;20466;-83
2021/07/30 10:02:43;;;;;;;4.67;2.37;;;23.70;78.90;;;;;;5020478;28;20457;-83
2021/07/30 10:05:10;;;;;;;2.50;2.30;;;23.70;78.30;;;;;;5016308;28;20519;-84
2021/07/30 10:07:37;;;;;;;2.50;1.90;;;23.70;77.50;;;;;;5031082;28;20423;-83
2021/07/30 10:10:08;;;;;;;2.93;2.30;;;23.80;78.90;;;;;;5034196;28;20827;-83
2021/07/30 10:12:37;;;;;;;3.37;2.20;;;23.90;80.20;;;;;;5032394;28;20439;-83
2021/07/30 10:15:05;;;;;;;5.93;2.40;;;24.10;78.30;;;;;;5033787;28;20483;-83
2021/07/30 10:17:35;;;;;;;4.07;2.37;;;24.10;78.60;;;;;;5032457;28;20820;-84
2021/07/30 10:20:08;;;;;;;6.57;2.27;;;24.10;79.20;;;;;;5032312;28;20992;-84
2021/07/30 10:22:59;;;;;;;4.03;2.57;;;24.10;78.20;;;;;;5032680;28;20442;-84
2021/07/30 10:25:49;;;;;;;3.60;2.77;;;24.10;79.50;;;;;;5032355;28;20439;-84
2021/07/30 10:28:24;;;;;;;5.27;2.43;;;24.10;78.80;;;;;;5021478;28;20431;-84
2021/07/30 10:31:06;;;;;;;4.53;2.20;;;24.20;79.10;;;;;;5022258;28;20415;-84
2021/07/30 10:33:36;;;;;;;3.27;2.20;;;24.30;78.60;;;;;;5012444;28;20459;-84
2021/07/30 10:36:03;;;;;;;4.50;2.20;;;24.40;79.70;;;;;;5021414;28;21010;-83
2021/07/30 10:38:29;;;;;;;2.43;2.23;;;24.50;79.50;;;;;;5032216;28;20419;-85
2021/07/30 10:40:58;;;;;;;3.40;2.30;;;24.70;80.30;;;;;;5031631;28;20473;-84
2021/07/30 10:43:33;;;;;;;6.17;2.57;;;24.70;78.00;;;;;;5032309;28;20287;-83
2021/07/30 10:46:05;;;;;;;4.30;2.50;;;24.60;77.50;;;;;;5028589;28;20509;-83
2021/07/30 10:48:32;;;;;;;2.70;2.00;;;24.40;78.10;;;;;;5023537;28;20437;-83
2021/07/30 10:51:06;;;;;;;5.73;2.30;;;24.40;79.10;;;;;;5032400;28;20963;-84
2021/07/30 10:53:36;;;;;;;4.13;2.60;;;24.40;79.70;;;;;;5031917;28;20426;-84
2021/07/30 10:56:03;;;;;;;4.20;2.50;;;24.50;79.10;;;;;;5031714;28;20443;-84
2021/07/30 10:58:58;;;;;;;3.43;2.40;;;24.60;78.90;;;;;;5031229;28;20729;-84
2021/07/30 11:01:26;;;;;;;2.77;2.17;;;24.60;78.70;;;;;;5030705;28;20500;-84
2021/07/30 11:03:52;;;;;;;4.10;2.40;;;24.50;79.10;;;;;;5031955;28;20423;-84
2021/07/30 11:06:25;;;;;;;3.40;2.20;;;24.60;79.30;;;;;;5032006;28;20472;-84
2021/07/30 11:11:49;;;;;;;3.40;2.23;;;24.90;78.10;;;;;;5024158;28;20501;-84
2021/07/30 11:14:22;;;;;;;11.30;2.67;;;24.90;78.60;;;;;;5025866;28;20896;-84
2021/07/30 11:17:12;;;;;;;2.80;2.40;;;25.10;79.80;;;;;;5026487;28;20447;-86
2021/07/30 11:19:49;;;;;;;3.33;2.00;;;25.20;78.40;;;;;;5026892;28;20515;-85
2021/07/30 11:22:16;;;;;;;4.40;1.90;;;25.20;76.70;;;;;;5043929;28;20451;-84
2021/07/30 11:24:47;;;;;;;5.00;2.47;;;25.20;76.50;;;;;;5031275;28;20441;-84
2021/07/30 11:27:15;;;;;;;4.00;2.30;;;25.30;76.00;;;;;;5033105;28;20911;-84
2021/07/30 11:29:49;;;;;;;8.53;2.57;;;25.30;75.70;;;;;;5026683;28;20439;-85
2021/07/30 11:32:17;;;;;;;3.70;2.40;;;25.30;75.80;;;;;;5017479;28;20455;-85
2021/07/30 11:34:46;;;;;;;3.63;2.30;;;25.30;77.00;;;;;;5031260;28;20465;-85
2021/07/30 11:37:17;;;;;;;2.33;2.20;;;25.40;76.60;;;;;;5031053;28;20423;-85
2021/07/30 11:39:44;;;;;;;3.60;2.10;;;25.50;76.30;;;;;;5031455;28;20783;-84
2021/07/30 11:42:14;;;;;;;5.60;2.47;;;25.50;76.90;;;;;;5030857;28;20467;-83
2021/07/30 11:44:44;;;;;;;3.27;2.37;;;25.60;75.30;;;;;;5031283;28;20451;-86
2021/07/30 11:47:10;;;;;;;2.57;2.30;;;25.60;75.30;;;;;;5031396;28;20419;-85
2021/07/30 11:49:38;;;;;;;4.40;2.30;;;25.60;75.90;;;;;;5030943;28;20430;-83
2021/07/30 11:52:06;;;;;;;5.60;2.80;;;25.70;76.50;;;;;;5030992;28;20242;-83
2021/07/30 11:54:32;;;;;;;4.13;2.23;;;25.70;75.70;;;;;;5030736;28;20813;-84
2021/07/30 11:56:58;;;;;;;3.03;2.40;;;25.80;76.50;;;;;;5031163;28;20797;-83
2021/07/30 11:59:24;;;;;;;3.50;2.30;;;26.00;76.50;;;;;;5031002;28;20978;-83
2021/07/30 12:02:06;;;;;;;3.20;2.63;;;26.10;76.30;;;;;;5026772;28;20443;-84
2021/07/30 12:04:33;;;;;;;2.40;1.90;;;26.30;76.60;;;;;;5030849;28;20422;-83
2021/07/30 12:07:15;;;;;;;4.90;2.23;;;26.40;75.30;;;;;;5030226;28;20526;-83
2021/07/30 12:09:42;;;;;;;4.83;2.10;;;26.40;76.20;;;;;;5031069;28;20455;-83
2021/07/30 12:12:13;;;;;;;2.80;2.20;;;26.40;74.80;;;;;;5030557;28;20435;-82
2021/07/30 12:14:39;;;;;;;6.03;3.30;;;26.20;75.10;;;;;;5030586;28;20466;-82
2021/07/30 12:17:06;;;;;;;6.13;2.50;;;26.30;75.90;;;;;;5027861;28;20427;-83
2021/07/30 12:19:33;;;;;;;4.13;2.57;;;26.40;75.60;;;;;;5030720;28;20415;-82
2021/07/30 12:22:07;;;;;;;6.87;2.90;;;26.70;76.10;;;;;;5030642;28;20537;-83
2021/07/30 12:24:45;;;;;;;2.27;2.10;;;26.80;75.50;;;;;;5030962;28;20563;-83
2021/07/30 12:27:20;;;;;;;4.23;2.30;;;26.90;75.80;;;;;;5030478;28;20423;-83
2021/07/30 12:29:47;;;;;;;2.53;2.33;;;27.00;75.50;;;;;;5031713;28;20434;-84
2021/07/30 12:32:13;;;;;;;4.77;2.53;;;26.80;75.00;;;;;;5029993;28;20459;-83
2021/07/30 12:34:38;;;;;;;3.97;2.47;;;26.80;75.20;;;;;;5030499;28;20459;-83
2021/07/30 12:37:10;;;;;;;5.73;2.23;;;26.60;76.20;;;;;;5030340;28;20622;-83
2021/07/30 12:39:50;;;;;;;4.33;2.63;;;26.50;74.70;;;;;;5030548;28;20177;-83
2021/07/30 12:42:20;;;;;;;3.30;2.80;;;26.60;75.30;;;;;;5029881;28;20463;-83
2021/07/30 12:45:05;;;;;;;2.30;2.10;;;26.70;77.80;;;;;;5031057;28;20427;-83
2021/07/30 12:47:31;;;;;;;5.23;2.33;;;26.90;78.30;;;;;;5030719;28;20445;-83
2021/07/30 12:49:57;;;;;;;3.03;2.60;;;27.00;76.30;;;;;;5030559;28;21050;-83
2021/07/30 12:52:23;;;;;;;4.40;2.30;;;27.10;74.60;;;;;;5030134;28;20207;-83